Terminal Aerodrome Forecast
Issued by NWS

Home | Current Version | Previous Version | Graphics & Text | Print | Product List | Glossary On
Versions: 1 2 3 4 5 6 7 8 9 10 11 12 13 14 15 16 17 18 19 20 21 22 23 24 25 26 27 28 29 30 31 32
000
FTUS45 KGGW 272300
TAFOLF
TAF
KOLF 272324Z 2800/2824 02016G24KT P6SM OVC090
     FM280200 04012KT P6SM VCSH OVC060
     FM280400 04013G17KT P6SM -RA OVC050
     FM281300 06012G18KT P6SM -RA OVC050=

USA.gov is the U.S. government's official web portal to all federal, state and local government web resources and services.